createdAt,value
2016-12-06T00:00:58.157Z,0
2016-12-06T00:02:06.840Z,0
2016-12-06T00:03:15.531Z,0
2016-12-06T00:04:24.210Z,0
2016-12-06T00:05:32.893Z,0
2016-12-06T00:06:41.576Z,0
2016-12-06T00:07:50.363Z,0
2016-12-06T00:08:59.045Z,0
2016-12-06T00:10:07.726Z,0
2016-12-06T00:11:17.067Z,0
2016-12-06T00:12:25.749Z,0
2016-12-06T00:13:34.434Z,0
2016-12-06T00:14:43.121Z,0
2016-12-06T00:15:51.835Z,0
2016-12-06T00:17:00.515Z,0
2016-12-06T00:18:09.197Z,0
2016-12-06T00:19:17.881Z,0
2016-12-06T00:20:26.564Z,0
2016-12-06T00:21:35.248Z,0
2016-12-06T00:22:44.259Z,0
2016-12-06T00:23:52.945Z,0
2016-12-06T00:25:01.626Z,0
2016-12-06T00:26:10.307Z,0
2016-12-06T00:27:18.985Z,0
2016-12-06T00:28:27.661Z,0
2016-12-06T00:29:36.348Z,0
2016-12-06T00:30:45.027Z,0
2016-12-06T00:31:53.711Z,0
2016-12-06T00:33:02.395Z,0
2016-12-06T00:34:11.074Z,0
2016-12-06T00:35:19.760Z,0
2016-12-06T00:36:28.444Z,0
2016-12-06T00:37:37.128Z,0
2016-12-06T00:38:45.811Z,0
2016-12-06T00:39:54.493Z,0
2016-12-06T00:41:03.175Z,0
2016-12-06T00:42:11.854Z,0
2016-12-06T00:43:20.541Z,0
2016-12-06T00:44:29.232Z,0
2016-12-06T00:45:37.919Z,0
2016-12-06T00:46:46.599Z,0
2016-12-06T00:47:55.655Z,0
2016-12-06T00:49:04.657Z,0
2016-12-06T00:50:13.341Z,0
2016-12-06T00:51:22.351Z,0
2016-12-06T00:52:31.035Z,0
2016-12-06T00:53:39.720Z,0
2016-12-06T00:54:48.435Z,0
2016-12-06T00:55:57.435Z,0
2016-12-06T00:57:06.129Z,0
2016-12-06T00:58:14.811Z,0
2016-12-06T00:59:23.493Z,0
2016-12-06T01:00:32.175Z,0
2016-12-06T01:01:40.858Z,0
2016-12-06T01:02:49.533Z,0
2016-12-06T01:03:58.216Z,0
2016-12-06T01:05:06.908Z,0
2016-12-06T01:06:15.589Z,0
2016-12-06T01:07:24.590Z,0
2016-12-06T01:08:33.268Z,0
2016-12-06T01:09:41.949Z,0
2016-12-06T01:10:50.624Z,0
2016-12-06T01:11:59.307Z,0
2016-12-06T01:13:07.984Z,0
2016-12-06T01:14:16.990Z,0
2016-12-06T01:15:25.675Z,0
2016-12-06T01:16:34.369Z,0
2016-12-06T01:17:43.051Z,0
2016-12-06T01:18:51.759Z,0
2016-12-06T01:20:00.444Z,0
2016-12-06T01:21:09.161Z,0
2016-12-06T01:22:17.842Z,0
2016-12-06T01:23:26.533Z,0
2016-12-06T01:24:35.221Z,0
2016-12-06T01:25:43.932Z,0
2016-12-06T01:26:52.638Z,0
2016-12-06T01:28:01.314Z,0
2016-12-06T01:29:09.996Z,0
2016-12-06T01:30:18.680Z,0
2016-12-06T01:31:27.364Z,0
2016-12-06T01:32:36.049Z,0
2016-12-06T01:33:44.740Z,0
2016-12-06T01:34:53.424Z,0
2016-12-06T01:36:02.109Z,0
2016-12-06T01:37:10.790Z,0
2016-12-06T01:38:19.497Z,0
2016-12-06T01:39:28.177Z,0
2016-12-06T01:40:36.859Z,0
2016-12-06T01:41:45.544Z,0
2016-12-06T01:42:54.223Z,0
2016-12-06T01:44:02.909Z,0
2016-12-06T01:45:11.626Z,0
2016-12-06T01:46:20.305Z,0
2016-12-06T01:47:28.986Z,0
2016-12-06T01:48:37.679Z,0
2016-12-06T01:49:46.385Z,0
2016-12-06T01:50:55.064Z,0
2016-12-06T01:52:04.064Z,0
2016-12-06T01:53:12.747Z,0
2016-12-06T01:54:21.424Z,0
2016-12-06T01:55:30.111Z,0
2016-12-06T01:56:38.792Z,0
2016-12-06T01:57:47.471Z,0
2016-12-06T01:58:56.153Z,0
2016-12-06T02:00:04.843Z,0
2016-12-06T02:01:13.528Z,0
2016-12-06T02:02:22.208Z,0
2016-12-06T02:03:30.885Z,0
2016-12-06T02:04:39.566Z,0
2016-12-06T02:05:48.243Z,0
2016-12-06T02:06:56.926Z,0
2016-12-06T02:08:05.638Z,0
2016-12-06T02:09:14.327Z,0
2016-12-06T02:10:23.013Z,0
2016-12-06T02:11:31.696Z,0
2016-12-06T02:12:40.378Z,0
2016-12-06T02:13:49.067Z,0
2016-12-06T02:14:57.751Z,0
2016-12-06T02:16:06.437Z,0
2016-12-06T02:17:15.114Z,0
2016-12-06T02:18:23.804Z,0
2016-12-06T02:19:32.488Z,0
2016-12-06T02:20:41.167Z,0
2016-12-06T02:21:49.848Z,0
2016-12-06T02:22:58.531Z,0
2016-12-06T02:24:07.217Z,0
2016-12-06T02:25:16.532Z,0
2016-12-06T02:26:25.212Z,0
2016-12-06T02:27:33.896Z,0
2016-12-06T02:28:42.573Z,0
2016-12-06T02:29:51.255Z,0
2016-12-06T02:30:59.940Z,0
2016-12-06T02:32:08.625Z,0
2016-12-06T02:33:17.309Z,0
2016-12-06T02:34:25.995Z,0
2016-12-06T02:35:34.679Z,0
2016-12-06T02:36:43.360Z,0
2016-12-06T02:37:52.045Z,0
2016-12-06T02:39:00.728Z,0
2016-12-06T02:40:09.408Z,0
2016-12-06T02:41:18.086Z,0
2016-12-06T02:42:26.767Z,0
2016-12-06T02:43:35.452Z,0
2016-12-06T02:44:44.133Z,0
2016-12-06T02:45:52.846Z,0
2016-12-06T02:47:01.524Z,0
2016-12-06T02:48:10.203Z,0
2016-12-06T02:49:18.888Z,0
2016-12-06T02:50:27.569Z,0
2016-12-06T02:51:36.254Z,0
2016-12-06T02:52:44.932Z,0
2016-12-06T02:53:53.610Z,0
2016-12-06T02:55:02.616Z,0
2016-12-06T02:56:11.307Z,0
2016-12-06T02:57:19.993Z,0
2016-12-06T02:58:28.674Z,0
2016-12-06T02:59:37.356Z,0
2016-12-06T03:00:46.036Z,0
2016-12-06T03:01:54.717Z,0
2016-12-06T03:03:03.397Z,0
2016-12-06T03:04:12.080Z,0
2016-12-06T03:05:20.764Z,0
2016-12-06T03:06:29.758Z,0
2016-12-06T03:07:38.439Z,0
2016-12-06T03:08:47.127Z,0
2016-12-06T03:09:55.808Z,0
2016-12-06T03:11:04.643Z,0
2016-12-06T03:12:13.324Z,0
2016-12-06T03:13:22.008Z,0
2016-12-06T03:14:30.694Z,0
2016-12-06T03:15:39.377Z,0
2016-12-06T03:16:48.056Z,0
2016-12-06T03:17:56.738Z,0
2016-12-06T03:19:05.426Z,0
2016-12-06T03:20:14.429Z,0
2016-12-06T03:21:23.111Z,0
2016-12-06T03:22:32.166Z,0
2016-12-06T03:23:40.844Z,0
2016-12-06T03:24:49.532Z,0
2016-12-06T03:25:58.234Z,0
2016-12-06T03:27:06.918Z,0
2016-12-06T03:28:15.912Z,0
2016-12-06T03:29:24.593Z,0
2016-12-06T03:30:33.276Z,0
2016-12-06T03:31:41.960Z,0
2016-12-06T03:32:50.641Z,0
2016-12-06T03:33:59.323Z,0
2016-12-06T03:35:08.008Z,0
2016-12-06T03:36:16.685Z,0
2016-12-06T03:37:25.367Z,0
2016-12-06T03:38:34.048Z,0
2016-12-06T03:39:42.733Z,0
2016-12-06T03:40:51.724Z,0
2016-12-06T03:42:00.406Z,0
2016-12-06T03:43:09.401Z,0
2016-12-06T03:44:18.403Z,0
2016-12-06T03:45:27.084Z,0
2016-12-06T03:46:36.082Z,0
2016-12-06T03:47:44.764Z,0
2016-12-06T03:48:53.449Z,0
2016-12-06T03:50:02.453Z,0
2016-12-06T03:51:11.137Z,0
2016-12-06T03:52:19.823Z,0
2016-12-06T03:53:28.505Z,0
2016-12-06T03:54:37.188Z,0
2016-12-06T03:55:45.876Z,0
2016-12-06T03:56:54.582Z,0
2016-12-06T03:58:03.271Z,0
2016-12-06T03:59:11.958Z,0
2016-12-06T04:00:20.640Z,0
2016-12-06T04:01:29.324Z,0
2016-12-06T04:02:38.005Z,0
2016-12-06T04:03:46.687Z,0
2016-12-06T04:04:55.376Z,0
2016-12-06T04:06:04.054Z,0
2016-12-06T04:07:12.738Z,0
2016-12-06T04:08:21.430Z,0
2016-12-06T04:09:30.110Z,0
2016-12-06T04:10:38.795Z,0
2016-12-06T04:11:47.479Z,0
2016-12-06T04:12:56.159Z,0
2016-12-06T04:14:04.848Z,0
2016-12-06T04:15:13.528Z,0
2016-12-06T04:16:22.211Z,0
2016-12-06T04:17:30.890Z,0
2016-12-06T04:18:39.568Z,0
2016-12-06T04:19:48.250Z,0
2016-12-06T04:20:56.941Z,0
2016-12-06T04:22:05.625Z,0
2016-12-06T04:23:14.305Z,0
2016-12-06T04:24:22.987Z,0
2016-12-06T04:25:31.669Z,0
2016-12-06T04:26:40.351Z,0
2016-12-06T04:27:49.034Z,0
2016-12-06T04:28:57.713Z,0
2016-12-06T04:30:06.396Z,0
2016-12-06T04:31:15.401Z,0
2016-12-06T04:32:24.091Z,0
2016-12-06T04:33:32.774Z,0
2016-12-06T04:34:41.462Z,0
2016-12-06T04:35:50.143Z,0
2016-12-06T04:36:58.831Z,0
2016-12-06T04:38:07.513Z,0
2016-12-06T04:39:16.200Z,0
2016-12-06T04:40:24.887Z,0
2016-12-06T04:41:33.572Z,0
2016-12-06T04:42:42.254Z,0
2016-12-06T04:43:51.260Z,0
2016-12-06T04:44:59.941Z,0
2016-12-06T04:46:08.624Z,0
2016-12-06T04:47:17.307Z,0
2016-12-06T04:48:25.987Z,0
2016-12-06T04:49:34.671Z,0
2016-12-06T04:50:43.356Z,0
2016-12-06T04:51:52.361Z,0
2016-12-06T04:53:01.038Z,0
2016-12-06T04:54:09.728Z,0
2016-12-06T04:55:18.435Z,0
2016-12-06T04:56:27.117Z,0
2016-12-06T04:57:35.801Z,0
2016-12-06T04:58:44.798Z,0
2016-12-06T04:59:53.481Z,0
2016-12-06T05:01:02.169Z,0
2016-12-06T05:02:10.847Z,0
2016-12-06T05:03:19.531Z,0
2016-12-06T05:04:28.222Z,0
2016-12-06T05:05:36.986Z,0
2016-12-06T05:06:45.688Z,0
2016-12-06T05:07:54.369Z,0
2016-12-06T05:09:03.050Z,0
2016-12-06T05:10:11.733Z,0
2016-12-06T05:11:20.415Z,0
2016-12-06T05:12:29.103Z,0
2016-12-06T05:13:37.786Z,0
2016-12-06T05:14:46.468Z,0
2016-12-06T05:15:55.152Z,0
2016-12-06T05:17:03.835Z,0
2016-12-06T05:18:12.520Z,0
2016-12-06T05:19:21.201Z,0
2016-12-06T05:20:29.894Z,0
2016-12-06T05:21:38.578Z,0
2016-12-06T05:22:47.264Z,0
2016-12-06T05:23:55.942Z,0
2016-12-06T05:25:04.625Z,0
2016-12-06T05:26:13.321Z,0
2016-12-06T05:27:22.000Z,0
2016-12-06T05:28:30.687Z,0
2016-12-06T05:29:39.375Z,0
2016-12-06T05:30:48.057Z,0
2016-12-06T05:31:56.742Z,0
2016-12-06T05:33:05.424Z,0
2016-12-06T05:34:14.111Z,0
2016-12-06T05:35:22.794Z,0
2016-12-06T05:36:31.475Z,0
2016-12-06T05:37:40.159Z,0
2016-12-06T05:38:48.848Z,0
2016-12-06T05:39:57.532Z,0
2016-12-06T05:41:06.217Z,0
2016-12-06T05:42:14.913Z,0
2016-12-06T05:43:23.628Z,0
2016-12-06T05:44:32.305Z,0
2016-12-06T05:45:40.986Z,0
2016-12-06T05:46:49.670Z,0
2016-12-06T05:47:58.671Z,0
2016-12-06T05:49:07.354Z,0
2016-12-06T05:50:16.040Z,0
2016-12-06T05:51:24.723Z,0
2016-12-06T05:52:33.408Z,0
2016-12-06T05:53:42.406Z,0
2016-12-06T05:54:51.097Z,0
2016-12-06T05:55:59.805Z,0
2016-12-06T05:57:08.488Z,0
2016-12-06T05:58:17.167Z,0
2016-12-06T05:59:26.176Z,0
2016-12-06T06:00:34.864Z,0
2016-12-06T06:01:43.544Z,0
2016-12-06T06:02:52.230Z,0
2016-12-06T06:04:00.909Z,0
2016-12-06T06:05:09.594Z,0
2016-12-06T06:06:18.596Z,0
2016-12-06T06:07:27.306Z,0
2016-12-06T06:08:35.991Z,0
2016-12-06T06:09:44.704Z,0
2016-12-06T06:10:53.387Z,0
2016-12-06T06:12:02.075Z,0
2016-12-06T06:13:10.758Z,0
2016-12-06T06:14:19.445Z,0
2016-12-06T06:15:28.124Z,0
2016-12-06T06:16:36.806Z,0
2016-12-06T06:17:45.483Z,0
2016-12-06T06:18:54.166Z,0
2016-12-06T06:20:02.857Z,0
2016-12-06T06:21:12.178Z,0
2016-12-06T06:22:20.862Z,0
2016-12-06T06:23:29.545Z,0
2016-12-06T06:24:38.226Z,0
2016-12-06T06:25:46.916Z,0
2016-12-06T06:26:55.599Z,0
2016-12-06T06:28:04.284Z,0
2016-12-06T06:29:12.968Z,0
2016-12-06T06:30:21.651Z,0
2016-12-06T06:31:30.335Z,0
2016-12-06T06:32:39.019Z,0
2016-12-06T06:33:47.698Z,0
2016-12-06T06:34:56.694Z,0
2016-12-06T06:36:05.374Z,0
2016-12-06T06:37:14.064Z,0
2016-12-06T06:38:22.777Z,0
2016-12-06T06:39:31.457Z,0
2016-12-06T06:40:40.169Z,0
2016-12-06T06:41:48.855Z,0
2016-12-06T06:42:57.593Z,0
2016-12-06T06:44:06.282Z,0
2016-12-06T06:45:14.973Z,0
2016-12-06T06:46:23.678Z,0
2016-12-06T06:47:32.365Z,0
2016-12-06T06:48:41.048Z,0
2016-12-06T06:49:49.727Z,0
2016-12-06T06:50:58.412Z,0
2016-12-06T06:52:07.093Z,0
2016-12-06T06:53:15.808Z,0
2016-12-06T06:54:24.492Z,0
2016-12-06T06:55:33.503Z,0
2016-12-06T06:56:42.186Z,0
2016-12-06T06:57:50.867Z,0
2016-12-06T06:58:59.548Z,0
2016-12-06T07:00:08.228Z,0
2016-12-06T07:01:16.919Z,0
2016-12-06T07:02:25.600Z,0
2016-12-06T07:03:34.289Z,0
2016-12-06T07:04:42.974Z,0
2016-12-06T07:05:51.653Z,0
2016-12-06T07:07:00.337Z,0
2016-12-06T07:08:09.019Z,0
2016-12-06T07:09:17.727Z,0
2016-12-06T07:10:26.409Z,0
2016-12-06T07:11:35.090Z,0
2016-12-06T07:12:43.773Z,4
2016-12-06T07:13:52.452Z,4
2016-12-06T07:15:01.132Z,4
2016-12-06T07:16:09.816Z,0
2016-12-06T07:17:18.499Z,0
2016-12-06T07:18:27.177Z,0
2016-12-06T07:19:35.857Z,4
2016-12-06T07:20:44.535Z,4
2016-12-06T07:21:53.550Z,0
2016-12-06T07:23:02.552Z,4
2016-12-06T07:24:11.547Z,4
2016-12-06T07:25:20.230Z,8
2016-12-06T07:26:28.916Z,4
2016-12-06T07:27:37.605Z,8
2016-12-06T07:28:46.598Z,8
2016-12-06T07:29:55.279Z,8
2016-12-06T07:31:03.967Z,8
2016-12-06T07:32:12.655Z,8
2016-12-06T07:33:21.335Z,12
2016-12-06T07:34:30.023Z,12
2016-12-06T07:35:38.705Z,16
2016-12-06T07:36:47.395Z,16
2016-12-06T07:37:56.393Z,20
2016-12-06T07:39:05.076Z,20
2016-12-06T07:40:14.112Z,28
2016-12-06T07:41:22.795Z,28
2016-12-06T07:42:31.475Z,32
2016-12-06T07:43:40.155Z,32
2016-12-06T07:44:48.840Z,40
2016-12-06T07:45:57.518Z,40
2016-12-06T07:47:06.203Z,48
2016-12-06T07:48:14.890Z,52
2016-12-06T07:49:23.585Z,56
2016-12-06T07:50:32.268Z,60
2016-12-06T07:51:40.953Z,68
2016-12-06T07:52:49.639Z,72
2016-12-06T07:53:58.324Z,80
2016-12-06T07:55:07.330Z,84
2016-12-06T07:56:16.016Z,88
2016-12-06T07:57:24.702Z,96
2016-12-06T07:58:33.384Z,100
2016-12-06T07:59:42.072Z,104
2016-12-06T08:00:50.753Z,116
2016-12-06T08:01:59.455Z,116
2016-12-06T08:03:08.449Z,128
2016-12-06T08:04:17.132Z,132
2016-12-06T08:05:25.817Z,140
2016-12-06T08:06:34.505Z,144
2016-12-06T08:07:43.194Z,152
2016-12-06T08:08:51.877Z,156
2016-12-06T08:10:00.678Z,164
2016-12-06T08:11:09.366Z,168
2016-12-06T08:12:18.058Z,176
2016-12-06T08:13:26.742Z,188
2016-12-06T08:14:35.475Z,192
2016-12-06T08:15:44.154Z,204
2016-12-06T08:16:52.839Z,212
2016-12-06T08:18:01.550Z,220
2016-12-06T08:19:10.239Z,232
2016-12-06T08:20:18.925Z,244
2016-12-06T08:21:27.607Z,252
2016-12-06T08:22:36.323Z,264
2016-12-06T08:23:45.042Z,268
2016-12-06T08:24:53.727Z,280
2016-12-06T08:26:02.734Z,288
2016-12-06T08:27:11.737Z,300
2016-12-06T08:28:20.415Z,308
2016-12-06T08:29:29.100Z,320
2016-12-06T08:30:37.783Z,328
2016-12-06T08:31:46.471Z,340
2016-12-06T08:32:55.153Z,352
2016-12-06T08:34:03.836Z,360
2016-12-06T08:35:12.520Z,372
2016-12-06T08:36:21.201Z,384
2016-12-06T08:37:29.882Z,396
2016-12-06T08:38:38.569Z,408
2016-12-06T08:39:47.283Z,420
2016-12-06T08:40:55.976Z,432
2016-12-06T08:42:04.662Z,448
2016-12-06T08:43:13.345Z,464
2016-12-06T08:44:22.026Z,480
2016-12-06T08:45:30.710Z,492
2016-12-06T08:46:39.406Z,508
2016-12-06T08:47:48.087Z,520
2016-12-06T08:48:56.797Z,532
2016-12-06T08:50:05.477Z,548
2016-12-06T08:51:14.193Z,564
2016-12-06T08:52:22.902Z,580
2016-12-06T08:53:31.589Z,596
2016-12-06T08:54:40.269Z,612
2016-12-06T08:55:48.949Z,628
2016-12-06T08:56:57.635Z,644
2016-12-06T08:58:06.319Z,668
2016-12-06T08:59:15.005Z,688
2016-12-06T09:00:23.687Z,712
2016-12-06T09:01:32.366Z,736
2016-12-06T09:02:41.046Z,764
2016-12-06T09:03:49.726Z,796
2016-12-06T09:04:58.410Z,828
2016-12-06T09:06:07.095Z,868
2016-12-06T09:07:15.776Z,900
2016-12-06T09:08:24.468Z,936
2016-12-06T09:09:33.150Z,968
2016-12-06T09:10:41.855Z,996
2016-12-06T09:11:50.535Z,1024
2016-12-06T09:12:59.217Z,1048
2016-12-06T09:14:07.899Z,1076
2016-12-06T09:15:16.646Z,1096
2016-12-06T09:16:25.336Z,1116
2016-12-06T09:17:34.021Z,1136
2016-12-06T09:18:42.735Z,1152
2016-12-06T09:19:51.417Z,1176
2016-12-06T09:21:00.101Z,1200
2016-12-06T09:22:08.787Z,1224
2016-12-06T09:23:17.478Z,1248
2016-12-06T09:24:26.159Z,1268
2016-12-06T09:25:34.842Z,1276
2016-12-06T09:26:43.563Z,1284
2016-12-06T09:27:52.254Z,1296
2016-12-06T09:29:00.942Z,1308
2016-12-06T09:30:09.624Z,1328
2016-12-06T09:31:18.307Z,1356
2016-12-06T09:32:26.990Z,1380
2016-12-06T09:33:35.678Z,1416
2016-12-06T09:34:44.363Z,1444
2016-12-06T09:35:53.044Z,1484
2016-12-06T09:37:01.732Z,1528
2016-12-06T09:38:10.425Z,1568
2016-12-06T09:39:19.112Z,1608
2016-12-06T09:40:27.793Z,1644
2016-12-06T09:41:36.477Z,1672
2016-12-06T09:42:45.159Z,1708
2016-12-06T09:43:53.844Z,1740
2016-12-06T09:45:02.535Z,1768
2016-12-06T09:46:11.225Z,1792
2016-12-06T09:47:19.904Z,1816
2016-12-06T09:48:28.589Z,1844
2016-12-06T09:49:37.280Z,1872
2016-12-06T09:50:45.963Z,1900
2016-12-06T09:51:54.643Z,1928
2016-12-06T09:53:03.336Z,1952
2016-12-06T09:54:12.048Z,1972
2016-12-06T09:55:20.736Z,1996
2016-12-06T09:56:29.426Z,2016
2016-12-06T09:57:38.129Z,2032
2016-12-06T09:58:46.815Z,2040
2016-12-06T09:59:55.497Z,2040
2016-12-06T10:01:04.411Z,2044
2016-12-06T10:02:13.170Z,2044
2016-12-06T10:03:21.858Z,2032
2016-12-06T10:04:30.569Z,2012
2016-12-06T10:05:39.252Z,1992
2016-12-06T10:06:47.966Z,1976
2016-12-06T10:07:56.651Z,1972
2016-12-06T10:09:05.334Z,1980
2016-12-06T10:10:14.023Z,2000
2016-12-06T10:11:22.711Z,2024
2016-12-06T10:12:31.389Z,2040
2016-12-06T10:13:40.071Z,2052
2016-12-06T10:14:48.757Z,2056
2016-12-06T10:15:57.469Z,2056
2016-12-06T10:17:06.181Z,2068
2016-12-06T10:18:14.872Z,2084
2016-12-06T10:19:23.554Z,2096
2016-12-06T10:20:32.239Z,2108
2016-12-06T10:21:41.231Z,2112
2016-12-06T10:22:49.921Z,2116
2016-12-06T10:23:58.604Z,2124
2016-12-06T10:25:07.290Z,2148
2016-12-06T10:26:15.984Z,2168
2016-12-06T10:27:24.662Z,2188
2016-12-06T10:28:33.659Z,2224
2016-12-06T10:29:42.688Z,2268
2016-12-06T10:30:51.371Z,2376
2016-12-06T10:32:00.055Z,2544
2016-12-06T10:33:08.748Z,2680
2016-12-06T10:34:17.398Z,2808
2016-12-06T10:35:26.082Z,2948
2016-12-06T10:36:35.076Z,3112
2016-12-06T10:37:43.757Z,3284
2016-12-06T10:38:52.466Z,3444
2016-12-06T10:40:01.146Z,3628
2016-12-06T10:41:09.830Z,3756
2016-12-06T10:42:18.512Z,3884
2016-12-06T10:43:27.220Z,3988
2016-12-06T10:44:35.911Z,4084
2016-12-06T10:45:44.629Z,4212
2016-12-06T10:46:53.341Z,4484
2016-12-06T10:48:02.049Z,4708
2016-12-06T10:49:10.739Z,4916
2016-12-06T10:50:19.427Z,4924
2016-12-06T10:51:28.165Z,5012
2016-12-06T10:52:36.850Z,5156
2016-12-06T10:53:45.538Z,5684
2016-12-06T10:54:54.574Z,6948
2016-12-06T10:56:03.259Z,7260
2016-12-06T10:57:11.939Z,8048
2016-12-06T10:58:20.626Z,7820
2016-12-06T10:59:29.313Z,7212
2016-12-06T11:00:37.996Z,6680
2016-12-06T11:01:46.692Z,4464
2016-12-06T11:02:55.375Z,4432
2016-12-06T11:04:04.068Z,5436
2016-12-06T11:05:12.762Z,5768
2016-12-06T11:06:21.451Z,5988
2016-12-06T11:07:30.138Z,6748
2016-12-06T11:08:38.826Z,7280
2016-12-06T11:09:47.565Z,7200
2016-12-06T11:10:56.251Z,7236
2016-12-06T11:12:04.952Z,6948
2016-12-06T11:13:13.652Z,9068
2016-12-06T11:14:22.337Z,9644
2016-12-06T11:15:31.020Z,8256
2016-12-06T11:16:39.710Z,4572
2016-12-06T11:17:48.400Z,3384
2016-12-06T11:18:57.115Z,3752
2016-12-06T11:20:05.803Z,3812
2016-12-06T11:21:14.485Z,3644
2016-12-06T11:22:23.166Z,4220
2016-12-06T11:23:31.849Z,7744
2016-12-06T11:24:40.536Z,8656
2016-12-06T11:25:49.242Z,7776
2016-12-06T11:26:57.933Z,6252
2016-12-06T11:28:06.619Z,5348
2016-12-06T11:29:15.308Z,7300
2016-12-06T11:30:23.998Z,5292
2016-12-06T11:31:32.685Z,5372
2016-12-06T11:32:41.369Z,6360
2016-12-06T11:33:50.372Z,4304
2016-12-06T11:34:59.073Z,5228
2016-12-06T11:36:07.794Z,6024
2016-12-06T11:37:16.491Z,4276
2016-12-06T11:38:25.172Z,2996
2016-12-06T11:39:33.859Z,3008
2016-12-06T11:40:42.554Z,3316
2016-12-06T11:41:51.268Z,3340
2016-12-06T11:42:59.957Z,3124
2016-12-06T11:44:08.966Z,2976
2016-12-06T11:45:17.658Z,2952
2016-12-06T11:46:26.348Z,2904
2016-12-06T11:47:35.036Z,2824
2016-12-06T11:48:43.727Z,2788
2016-12-06T11:49:52.420Z,2788
2016-12-06T11:51:01.103Z,2772
2016-12-06T11:52:09.789Z,2860
2016-12-06T11:53:18.488Z,3300
2016-12-06T11:54:27.187Z,3824
2016-12-06T11:55:35.868Z,3376
2016-12-06T11:56:44.551Z,3128
2016-12-06T11:57:53.577Z,3720
2016-12-06T11:59:02.289Z,4996
2016-12-06T12:00:10.980Z,6052
2016-12-06T12:01:19.666Z,5384
2016-12-06T12:02:28.356Z,4180
2016-12-06T12:03:37.047Z,3628
2016-12-06T12:04:45.730Z,3808
2016-12-06T12:05:54.418Z,4188
2016-12-06T12:07:03.111Z,4476
2016-12-06T12:08:11.799Z,4344
2016-12-06T12:09:20.799Z,3296
2016-12-06T12:10:29.487Z,2980
2016-12-06T12:11:38.180Z,3616
2016-12-06T12:12:46.868Z,5032
2016-12-06T12:13:55.568Z,5260
2016-12-06T12:15:04.251Z,4800
2016-12-06T12:16:12.941Z,4780
2016-12-06T12:17:21.637Z,4604
2016-12-06T12:18:30.319Z,4692
2016-12-06T12:19:39.006Z,4428
2016-12-06T12:20:47.692Z,4196
2016-12-06T12:21:56.380Z,4004
2016-12-06T12:23:05.068Z,3892
2016-12-06T12:24:13.785Z,3864
2016-12-06T12:25:22.469Z,3860
2016-12-06T12:26:31.253Z,3900
2016-12-06T12:27:39.939Z,4016
2016-12-06T12:28:48.634Z,3992
2016-12-06T12:29:57.343Z,3932
2016-12-06T12:31:06.048Z,3916
2016-12-06T12:32:14.734Z,3780
2016-12-06T12:33:23.426Z,3704
2016-12-06T12:34:32.118Z,3536
2016-12-06T12:35:40.806Z,3540
2016-12-06T12:36:49.494Z,3304
2016-12-06T12:37:58.181Z,2924
2016-12-06T12:39:06.870Z,2924
2016-12-06T12:40:15.876Z,3236
2016-12-06T12:41:24.560Z,3440
2016-12-06T12:42:33.249Z,3388
2016-12-06T12:43:41.942Z,3124
2016-12-06T12:44:50.633Z,2780
2016-12-06T12:45:59.331Z,2612
2016-12-06T12:47:08.077Z,2380
2016-12-06T12:48:17.085Z,2288
2016-12-06T12:49:25.781Z,2124
2016-12-06T12:50:34.785Z,2004
2016-12-06T12:51:43.486Z,1916
2016-12-06T12:52:52.171Z,1948
2016-12-06T12:54:00.861Z,2024
2016-12-06T12:55:09.561Z,2024
2016-12-06T12:56:18.248Z,2032
2016-12-06T12:57:27.262Z,2020
2016-12-06T12:58:35.950Z,2192
2016-12-06T12:59:44.638Z,2244
2016-12-06T13:00:53.329Z,2172
2016-12-06T13:02:02.024Z,2048
2016-12-06T13:03:10.728Z,1920
2016-12-06T13:04:19.414Z,1824
2016-12-06T13:05:28.100Z,1724
2016-12-06T13:06:36.786Z,1608
2016-12-06T13:07:45.476Z,1572
2016-12-06T13:08:54.482Z,1552
2016-12-06T13:10:03.171Z,1480
2016-12-06T13:11:11.863Z,1416
2016-12-06T13:12:20.553Z,1356
2016-12-06T13:13:29.242Z,1308
2016-12-06T13:14:37.926Z,1272
2016-12-06T13:15:46.616Z,1244
2016-12-06T13:16:55.304Z,1220
2016-12-06T13:18:03.992Z,1196
2016-12-06T13:19:12.689Z,1168
2016-12-06T13:20:21.384Z,1144
2016-12-06T13:21:30.068Z,1120
2016-12-06T13:22:38.751Z,1096
2016-12-06T13:23:47.456Z,1068
2016-12-06T13:24:56.141Z,1044
2016-12-06T13:26:04.826Z,1012
2016-12-06T13:27:13.508Z,988
2016-12-06T13:28:22.192Z,960
2016-12-06T13:29:30.907Z,944
2016-12-06T13:30:39.602Z,920
2016-12-06T13:31:48.285Z,908
2016-12-06T13:32:56.967Z,892
2016-12-06T13:34:05.655Z,876
2016-12-06T13:35:14.364Z,860
2016-12-06T13:36:23.045Z,836
2016-12-06T13:37:31.727Z,816
2016-12-06T13:38:40.417Z,796
2016-12-06T13:39:49.103Z,776
2016-12-06T13:40:57.783Z,756
2016-12-06T13:42:06.472Z,732
2016-12-06T13:43:15.474Z,708
2016-12-06T13:44:24.151Z,688
2016-12-06T13:45:32.841Z,672
2016-12-06T13:46:41.523Z,656
2016-12-06T13:47:50.205Z,648
2016-12-06T13:48:58.891Z,636
2016-12-06T13:50:07.584Z,624
2016-12-06T13:51:16.589Z,612
2016-12-06T13:52:25.594Z,592
2016-12-06T13:53:34.278Z,572
2016-12-06T13:54:42.964Z,548
2016-12-06T13:55:51.645Z,524
2016-12-06T13:57:00.332Z,496
2016-12-06T13:58:09.028Z,468
2016-12-06T13:59:17.717Z,448
2016-12-06T14:00:26.396Z,428
2016-12-06T14:01:35.076Z,408
2016-12-06T14:02:43.760Z,392
2016-12-06T14:03:52.442Z,372
2016-12-06T14:05:01.136Z,356
2016-12-06T14:06:10.145Z,336
2016-12-06T14:07:18.823Z,320
2016-12-06T14:08:27.504Z,300
2016-12-06T14:09:36.187Z,284
2016-12-06T14:10:44.867Z,272
2016-12-06T14:11:53.553Z,256
2016-12-06T14:13:02.238Z,240
2016-12-06T14:14:10.927Z,224
2016-12-06T14:15:19.622Z,212
2016-12-06T14:16:28.301Z,200
2016-12-06T14:17:36.986Z,188
2016-12-06T14:18:45.670Z,176
2016-12-06T14:19:54.385Z,164
2016-12-06T14:21:03.120Z,152
2016-12-06T14:22:11.801Z,140
2016-12-06T14:23:20.486Z,136
2016-12-06T14:24:29.165Z,124
2016-12-06T14:25:37.848Z,112
2016-12-06T14:26:46.537Z,104
2016-12-06T14:27:55.217Z,92
2016-12-06T14:29:03.899Z,88
2016-12-06T14:30:12.578Z,76
2016-12-06T14:31:21.258Z,72
2016-12-06T14:32:29.946Z,64
2016-12-06T14:33:38.634Z,56
2016-12-06T14:34:47.324Z,56
2016-12-06T14:35:56.009Z,44
2016-12-06T14:37:04.693Z,40
2016-12-06T14:38:13.380Z,40
2016-12-06T14:39:22.062Z,32
2016-12-06T14:40:30.744Z,28
2016-12-06T14:41:39.435Z,24
2016-12-06T14:42:48.432Z,24
2016-12-06T14:43:57.120Z,20
2016-12-06T14:45:06.125Z,16
2016-12-06T14:46:14.810Z,12
2016-12-06T14:47:23.489Z,16
2016-12-06T14:48:32.176Z,12
2016-12-06T14:49:40.865Z,8
2016-12-06T14:50:49.547Z,8
2016-12-06T14:51:58.231Z,8
2016-12-06T14:53:06.914Z,4
2016-12-06T14:54:15.593Z,8
2016-12-06T14:55:24.279Z,4
2016-12-06T14:56:32.961Z,8
2016-12-06T14:57:41.647Z,4
2016-12-06T14:58:50.331Z,4
2016-12-06T14:59:59.016Z,0
2016-12-06T15:01:07.712Z,0
2016-12-06T15:02:16.400Z,4
2016-12-06T15:03:25.086Z,4
2016-12-06T15:04:33.769Z,4
2016-12-06T15:05:42.453Z,4
2016-12-06T15:06:51.136Z,0
2016-12-06T15:07:59.841Z,0
2016-12-06T15:09:08.526Z,0
2016-12-06T15:10:17.207Z,0
2016-12-06T15:11:25.888Z,0
2016-12-06T15:12:34.571Z,0
2016-12-06T15:13:43.565Z,0
2016-12-06T15:14:52.248Z,0
2016-12-06T15:16:00.927Z,0
2016-12-06T15:17:09.615Z,0
2016-12-06T15:18:18.301Z,0
2016-12-06T15:19:26.979Z,0
2016-12-06T15:20:35.663Z,0
2016-12-06T15:21:44.343Z,0
2016-12-06T15:22:53.050Z,0
2016-12-06T15:24:01.732Z,0
2016-12-06T15:25:10.419Z,0
2016-12-06T15:26:19.097Z,0
2016-12-06T15:27:27.780Z,0
2016-12-06T15:28:36.463Z,0
2016-12-06T15:29:45.151Z,0
2016-12-06T15:30:53.838Z,0
2016-12-06T15:32:02.518Z,0
2016-12-06T15:33:11.199Z,0
2016-12-06T15:34:19.891Z,0
2016-12-06T15:35:28.572Z,0
2016-12-06T15:36:37.256Z,0
2016-12-06T15:37:45.950Z,0
2016-12-06T15:38:54.632Z,0
2016-12-06T15:40:03.317Z,0
2016-12-06T15:41:12.009Z,0
2016-12-06T15:42:20.684Z,0
2016-12-06T15:43:29.366Z,0
2016-12-06T15:44:38.045Z,0
2016-12-06T15:45:46.724Z,0
2016-12-06T15:46:55.410Z,0
2016-12-06T15:48:04.087Z,0
2016-12-06T15:49:12.771Z,0
2016-12-06T15:50:21.454Z,0
2016-12-06T15:51:30.139Z,0
2016-12-06T15:52:38.822Z,0
2016-12-06T15:53:47.506Z,0
2016-12-06T15:54:56.201Z,0
2016-12-06T15:56:04.881Z,0
2016-12-06T15:57:13.562Z,0
2016-12-06T15:58:22.249Z,0
2016-12-06T15:59:30.934Z,0
2016-12-06T16:00:39.611Z,0
2016-12-06T16:01:48.297Z,0
2016-12-06T16:02:56.983Z,0
2016-12-06T16:04:05.664Z,0
2016-12-06T16:05:14.349Z,0
2016-12-06T16:06:23.032Z,0
2016-12-06T16:07:31.723Z,0
2016-12-06T16:08:40.409Z,0
2016-12-06T16:09:49.094Z,0
2016-12-06T16:10:57.786Z,0
2016-12-06T16:12:06.470Z,0
2016-12-06T16:13:15.149Z,0
2016-12-06T16:14:24.142Z,0
2016-12-06T16:15:32.823Z,0
2016-12-06T16:16:41.502Z,0